createdAt,value
2023-12-15T00:00:50.081Z,102183.81
2023-12-15T00:03:53.317Z,102194.66
2023-12-15T00:06:56.381Z,102194.19
2023-12-15T00:09:59.137Z,102190.44
2023-12-15T00:13:03.372Z,102188.06
2023-12-15T00:16:07.259Z,102194.19
2023-12-15T00:19:10.306Z,102192.97
2023-12-15T00:22:13.382Z,102196.72
2023-12-15T00:25:16.344Z,102195.03
2023-12-15T00:28:20.652Z,102199.78
2023-12-15T00:31:23.366Z,102196.06
2023-12-15T00:34:26.223Z,102206.72
2023-12-15T00:37:29.732Z,102198.78
2023-12-15T00:40:32.387Z,102221.66
2023-12-15T00:43:36.808Z,102229.47
2023-12-15T00:46:39.519Z,102234.38
2023-12-15T00:49:42.449Z,102232.84
2023-12-15T00:52:45.563Z,102225.41
2023-12-15T00:55:48.288Z,102230.50
2023-12-15T00:58:52.578Z,102230.97
2023-12-15T01:01:55.409Z,102233.53
2023-12-15T01:04:58.367Z,102242.31
2023-12-15T01:08:01.178Z,102247.44
2023-12-15T01:11:04.384Z,102248.97
2023-12-15T01:14:08.550Z,102254.78
2023-12-15T01:17:11.700Z,102253.56
2023-12-15T01:20:15.463Z,102254.59
2023-12-15T01:23:18.297Z,102259.19
2023-12-15T01:26:21.216Z,102261.03
2023-12-15T01:29:25.482Z,102270.38
2023-12-15T01:32:28.401Z,102275.16
2023-12-15T01:35:31.320Z,102277.69
2023-12-15T01:38:34.109Z,102280.91
2023-12-15T01:41:37.060Z,102289.22
2023-12-15T01:44:41.787Z,102294.16
2023-12-15T01:47:45.630Z,102304.03
2023-12-15T01:50:48.526Z,102301.69
2023-12-15T01:53:51.251Z,102307.28
2023-12-15T01:56:54.200Z,102308.78
2023-12-15T01:59:58.423Z,102318.31
2023-12-15T02:03:01.179Z,102316.44
2023-12-15T02:06:04.194Z,102317.13
2023-12-15T02:09:06.938Z,102312.56
2023-12-15T02:12:10.564Z,102318.13
2023-12-15T02:15:15.279Z,102316.25
2023-12-15T02:18:18.219Z,102319.47
2023-12-15T02:21:21.175Z,102323.00
2023-12-15T02:24:25.523Z,102330.13
2023-12-15T02:27:28.693Z,102327.22
2023-12-15T02:30:32.026Z,102337.22
2023-12-15T02:33:34.952Z,102336.66
2023-12-15T02:36:38.343Z,102339.38
2023-12-15T02:39:42.449Z,102329.53
2023-12-15T02:42:45.344Z,102336.97
2023-12-15T02:45:48.367Z,102341.53
2023-12-15T02:48:51.298Z,102346.09
2023-12-15T02:51:54.324Z,102349.16
2023-12-15T02:54:58.417Z,102357.44
2023-12-15T02:58:01.587Z,102358.44
2023-12-15T03:01:05.106Z,102350.38
2023-12-15T03:04:07.986Z,102350.88
2023-12-15T03:07:11.447Z,102359.00
2023-12-15T03:10:19.232Z,102365.66
2023-12-15T03:13:22.131Z,102365.16
2023-12-15T03:16:25.491Z,102377.16
2023-12-15T03:19:28.440Z,102376.63
2023-12-15T03:22:31.285Z,102375.09
2023-12-15T03:25:35.485Z,102381.69
2023-12-15T03:28:40.832Z,102384.41
2023-12-15T03:31:43.571Z,102382.03
2023-12-15T03:34:46.423Z,102385.59
2023-12-15T03:37:49.286Z,102395.41
2023-12-15T03:40:53.434Z,102397.25
2023-12-15T03:43:56.364Z,102387.97
2023-12-15T03:46:59.279Z,102406.03
2023-12-15T03:50:04.754Z,102407.19
2023-12-15T03:53:07.810Z,102405.13
2023-12-15T03:56:12.366Z,102406.13
2023-12-15T03:59:15.303Z,102394.63
2023-12-15T04:02:20.299Z,102402.69
2023-12-15T04:05:23.471Z,102394.78
2023-12-15T04:08:26.420Z,102409.28
2023-12-15T04:11:31.207Z,102413.84
2023-12-15T04:14:34.997Z,102411.88
2023-12-15T04:17:38.236Z,102414.44
2023-12-15T04:20:41.367Z,102424.56
2023-12-15T04:23:44.186Z,102427.28
2023-12-15T04:26:48.555Z,102426.38
2023-12-15T04:29:51.396Z,102430.84
2023-12-15T04:32:54.141Z,102431.91
2023-12-15T04:35:57.014Z,102431.09
2023-12-15T04:38:59.870Z,102430.94
2023-12-15T04:42:03.986Z,102440.78
2023-12-15T04:45:08.811Z,102434.41
2023-12-15T04:48:11.721Z,102431.84
2023-12-15T04:51:15.645Z,102431.59
2023-12-15T04:54:18.710Z,102439.19
2023-12-15T04:57:22.785Z,102445.81
2023-12-15T05:00:26.044Z,102450.38
2023-12-15T05:03:29.128Z,102446.81
2023-12-15T05:06:32.912Z,102452.03
2023-12-15T05:09:36.207Z,102453.88
2023-12-15T05:12:40.736Z,102450.72
2023-12-15T05:15:43.668Z,102453.06
2023-12-15T05:18:47.094Z,102458.31
2023-12-15T05:21:50.270Z,102462.53
2023-12-15T05:24:53.574Z,102474.81
2023-12-15T05:27:58.105Z,102473.06
2023-12-15T05:31:01.105Z,102473.03
2023-12-15T05:34:04.272Z,102470.84
2023-12-15T05:37:07.902Z,102479.13
2023-12-15T05:40:13.306Z,102476.25
2023-12-15T05:43:18.064Z,102475.97
2023-12-15T05:46:21.716Z,102478.31
2023-12-15T05:49:25.472Z,102467.31
2023-12-15T05:52:28.830Z,102465.25
2023-12-15T05:55:34.489Z,102472.56
2023-12-15T05:58:38.611Z,102476.34
2023-12-15T06:01:42.094Z,102491.41
2023-12-15T06:04:44.994Z,102495.22
2023-12-15T06:07:49.703Z,102498.44
2023-12-15T06:10:52.937Z,102499.34
2023-12-15T06:13:58.113Z,102497.25
2023-12-15T06:17:02.304Z,102517.59
2023-12-15T06:20:08.481Z,102513.09
2023-12-15T06:23:11.562Z,102519.72
2023-12-15T06:26:19.344Z,102521.56
2023-12-15T06:29:23.562Z,102533.91
2023-12-15T06:32:26.697Z,102533.41
2023-12-15T06:35:29.651Z,102539.56
2023-12-15T06:38:32.487Z,102542.88
2023-12-15T06:41:35.748Z,102548.81
2023-12-15T06:44:40.980Z,102548.72
2023-12-15T06:47:44.178Z,102556.94
2023-12-15T06:50:47.306Z,102557.50
2023-12-15T06:53:50.126Z,102567.00
2023-12-15T06:56:52.995Z,102566.22
2023-12-15T06:59:57.699Z,102571.50
2023-12-15T07:03:00.581Z,102578.63
2023-12-15T07:06:03.910Z,102576.91
2023-12-15T07:09:06.684Z,102582.34
2023-12-15T07:12:11.040Z,102575.22
2023-12-15T07:15:16.508Z,102571.66
2023-12-15T07:18:19.529Z,102583.88
2023-12-15T07:21:22.625Z,102586.81
2023-12-15T07:24:26.752Z,102598.13
2023-12-15T07:27:29.635Z,102598.34
2023-12-15T07:30:33.927Z,102598.34
2023-12-15T07:33:40.283Z,102598.56
2023-12-15T07:36:44.039Z,102583.16
2023-12-15T07:39:49.505Z,102585.50
2023-12-15T07:42:52.200Z,102586.41
2023-12-15T07:45:56.308Z,102598.97
2023-12-15T07:48:59.603Z,102603.72
2023-12-15T07:52:02.855Z,102610.66
2023-12-15T07:55:06.388Z,102609.47
2023-12-15T07:58:11.309Z,102607.97
2023-12-15T08:01:15.431Z,102611.91
2023-12-15T08:04:22.459Z,102606.81
2023-12-15T08:07:25.210Z,102608.06
2023-12-15T08:10:30.693Z,102610.22
2023-12-15T08:13:34.060Z,102603.44
2023-12-15T08:16:41.105Z,102604.16
2023-12-15T08:19:45.918Z,102599.59
2023-12-15T08:22:48.770Z,102605.34
2023-12-15T08:25:51.524Z,102615.88
2023-12-15T08:28:55.485Z,102603.91
2023-12-15T08:32:00.137Z,102609.97
2023-12-15T08:35:03.702Z,102621.50
2023-12-15T08:38:06.667Z,102619.81
2023-12-15T08:41:09.942Z,102614.94
2023-12-15T08:44:20.025Z,102615.31
2023-12-15T08:47:33.123Z,102619.88
2023-12-15T08:50:36.192Z,102622.59
2023-12-15T08:53:40.425Z,102633.47
2023-12-15T08:56:43.320Z,102640.63
2023-12-15T08:59:48.243Z,102641.28
2023-12-15T09:02:54.678Z,102650.66
2023-12-15T09:06:17.740Z,102656.94
2023-12-15T09:09:25.342Z,102670.34
2023-12-15T09:12:28.278Z,102670.72
2023-12-15T09:15:34.841Z,102668.84
2023-12-15T09:18:39.942Z,102675.81
2023-12-15T09:21:45.148Z,102687.03
2023-12-15T09:24:48.130Z,102679.22
2023-12-15T09:27:50.847Z,102687.72
2023-12-15T09:30:56.910Z,102696.38
2023-12-15T09:34:04.074Z,102696.38
2023-12-15T09:37:09.100Z,102702.31
2023-12-15T09:40:12.857Z,102700.63
2023-12-15T09:43:15.682Z,102698.44
2023-12-15T09:46:18.740Z,102703.84
2023-12-15T09:49:25.913Z,102704.72
2023-12-15T09:52:29.162Z,102714.06
2023-12-15T09:55:38.437Z,102713.03
2023-12-15T09:58:52.347Z,102708.13
2023-12-15T10:02:00.011Z,102713.22
2023-12-15T10:05:04.550Z,102713.03
2023-12-15T10:08:09.099Z,102709.63
2023-12-15T10:11:14.819Z,102713.72
2023-12-15T10:14:20.858Z,102715.41
2023-12-15T10:17:25.818Z,102722.38
2023-12-15T10:20:31.418Z,102719.84
2023-12-15T10:23:35.962Z,102729.88
2023-12-15T10:26:40.340Z,102724.28
2023-12-15T10:29:44.823Z,102715.94
2023-12-15T10:32:47.911Z,102716.78
2023-12-15T10:35:52.485Z,102730.88
2023-12-15T10:39:00.094Z,102721.19
2023-12-15T10:42:07.293Z,102722.22
2023-12-15T10:45:11.233Z,102718.47
2023-12-15T10:48:17.687Z,102710.00
2023-12-15T10:51:32.078Z,102708.63
2023-12-15T10:54:38.352Z,102718.47
2023-12-15T10:57:46.533Z,102715.94
2023-12-15T11:00:52.482Z,102715.22
2023-12-15T11:03:55.458Z,102724.56
2023-12-15T11:07:03.336Z,102720.84
2023-12-15T11:10:07.560Z,102727.13
2023-12-15T11:13:44.910Z,102730.03
2023-12-15T11:16:47.984Z,102725.94
2023-12-15T11:20:01.374Z,102734.97
2023-12-15T11:23:10.980Z,102724.63
2023-12-15T11:26:21.926Z,102721.19
2023-12-15T11:29:24.962Z,102722.75
2023-12-15T11:32:31.831Z,102712.38
2023-12-15T11:35:34.981Z,102727.97
2023-12-15T11:38:42.363Z,102725.63
2023-12-15T11:41:48.793Z,102721.03
2023-12-15T11:44:51.763Z,102718.31
2023-12-15T11:47:55.735Z,102718.13
2023-12-15T11:50:59.001Z,102722.19
2023-12-15T11:54:12.083Z,102715.06
2023-12-15T11:57:23.228Z,102704.16
2023-12-15T12:00:27.390Z,102705.00
2023-12-15T12:03:33.480Z,102696.84
2023-12-15T12:06:38.454Z,102699.41
2023-12-15T12:09:42.802Z,102707.72
2023-12-15T12:12:45.699Z,102709.41
2023-12-15T12:15:53.580Z,102715.34
2023-12-15T12:18:57.981Z,102713.34
2023-12-15T12:22:00.839Z,102729.66
2023-12-15T12:25:08.282Z,102744.78
2023-12-15T12:28:11.035Z,102752.63
2023-12-15T12:31:16.146Z,102762.47
2023-12-15T12:34:19.165Z,102759.28
2023-12-15T12:37:22.078Z,102751.09
2023-12-15T12:40:30.191Z,102745.97
2023-12-15T12:43:32.918Z,102743.25
2023-12-15T12:46:36.072Z,102738.19
2023-12-15T12:49:49.575Z,102742.78
2023-12-15T12:52:57.548Z,102740.72
2023-12-15T12:56:02.001Z,102754.66
2023-12-15T12:59:09.512Z,102751.44
2023-12-15T13:02:20.534Z,102745.13
2023-12-15T13:05:24.971Z,102759.59
2023-12-15T13:08:27.978Z,102769.97
2023-12-15T13:11:32.195Z,102769.09
2023-12-15T13:14:35.191Z,102758.75
2023-12-15T13:17:38.030Z,102772.53
2023-12-15T13:20:41.248Z,102779.31
2023-12-15T13:23:44.303Z,102776.41
2023-12-15T13:26:49.734Z,102776.75
2023-12-15T13:29:55.245Z,102778.81
2023-12-15T13:32:58.620Z,102780.16
2023-12-15T13:36:10.796Z,102781.69
2023-12-15T13:39:18.691Z,102781.19
2023-12-15T13:42:31.650Z,102781.84
2023-12-15T13:45:41.556Z,102779.31
2023-12-15T13:48:48.450Z,102780.34
2023-12-15T13:51:51.226Z,102781.00
2023-12-15T13:54:55.870Z,102790.19
2023-12-15T13:58:02.678Z,102795.47
2023-12-15T14:01:05.853Z,102790.53
2023-12-15T14:04:14.583Z,102792.88
2023-12-15T14:07:17.630Z,102798.16
2023-12-15T14:10:20.381Z,102807.34
2023-12-15T14:13:24.735Z,102806.00
2023-12-15T14:16:40.739Z,102809.75
2023-12-15T14:19:49.184Z,102812.47
2023-12-15T14:22:55.570Z,102810.91
2023-12-15T14:25:58.309Z,102812.28
2023-12-15T14:29:05.023Z,102811.28
2023-12-15T14:32:08.598Z,102821.66
2023-12-15T14:35:14.306Z,102815.19
2023-12-15T14:38:19.145Z,102818.09
2023-12-15T14:41:24.592Z,102809.25
2023-12-15T14:44:28.779Z,102808.72
2023-12-15T14:47:31.651Z,102805.28
2023-12-15T14:50:38.601Z,102805.81
2023-12-15T14:53:41.581Z,102811.59
2023-12-15T14:56:44.712Z,102811.59
2023-12-15T14:59:49.646Z,102810.06
2023-12-15T15:02:52.631Z,102815.31
2023-12-15T15:05:55.731Z,102823.31
2023-12-15T15:08:58.552Z,102826.72
2023-12-15T15:12:02.628Z,102829.63
2023-12-15T15:15:09.680Z,102825.50
2023-12-15T15:18:14.544Z,102831.81
2023-12-15T15:21:18.046Z,102829.78
2023-12-15T15:24:22.130Z,102826.53
2023-12-15T15:27:30.880Z,102824.16
2023-12-15T15:30:37.181Z,102834.69
2023-12-15T15:33:40.066Z,102849.88
2023-12-15T15:36:43.145Z,102854.13
2023-12-15T15:39:45.972Z,102855.31
2023-12-15T15:42:55.293Z,102862.47
2023-12-15T15:46:01.938Z,102863.31
2023-12-15T15:49:04.984Z,102859.91
2023-12-15T15:52:08.310Z,102857.03
2023-12-15T15:55:14.125Z,102844.56
2023-12-15T15:58:17.035Z,102847.66
2023-12-15T16:01:35.337Z,102852.72
2023-12-15T16:04:43.661Z,102841.84
2023-12-15T16:07:46.393Z,102841.16
2023-12-15T16:10:53.295Z,102846.31
2023-12-15T16:14:02.498Z,102851.56
2023-12-15T16:17:15.381Z,102859.91
2023-12-15T16:20:23.282Z,102855.47
2023-12-15T16:23:28.100Z,102872.66
2023-12-15T16:26:34.314Z,102871.81
2023-12-15T16:29:39.461Z,102867.38
2023-12-15T16:32:44.239Z,102888.09
2023-12-15T16:35:48.375Z,102891.19
2023-12-15T16:38:52.064Z,102885.25
2023-12-15T16:42:03.557Z,102880.28
2023-12-15T16:45:09.469Z,102890.66
2023-12-15T16:48:18.275Z,102897.31
2023-12-15T16:51:23.721Z,102903.59
2023-12-15T16:54:26.610Z,102914.31
2023-12-15T16:57:29.362Z,102903.06
2023-12-15T17:00:32.262Z,102916.88
2023-12-15T17:03:38.529Z,102911.59
2023-12-15T17:06:42.611Z,102927.63
2023-12-15T17:09:47.452Z,102936.78
2023-12-15T17:12:53.641Z,102913.28
2023-12-15T17:15:58.263Z,102920.63
2023-12-15T17:19:02.764Z,102913.28
2023-12-15T17:22:05.566Z,102913.28
2023-12-15T17:25:12.920Z,102903.25
2023-12-15T17:28:26.405Z,102922.97
2023-12-15T17:31:32.227Z,102915.66
2023-12-15T17:34:36.535Z,102914.63
2023-12-15T17:37:39.614Z,102927.94
2023-12-15T17:40:42.472Z,102914.31
2023-12-15T17:43:45.606Z,102924.31
2023-12-15T17:46:48.382Z,102941.03
2023-12-15T17:49:52.780Z,102935.41
2023-12-15T17:52:55.539Z,102943.38
2023-12-15T17:55:58.696Z,102957.88
2023-12-15T17:59:01.404Z,102952.59
2023-12-15T18:02:06.703Z,102956.16
2023-12-15T18:05:11.277Z,102978.16
2023-12-15T18:08:14.176Z,102970.28
2023-12-15T18:11:21.168Z,102952.22
2023-12-15T18:14:24.227Z,102976.75
2023-12-15T18:17:27.016Z,102976.59
2023-12-15T18:20:31.307Z,102978.47
2023-12-15T18:23:34.005Z,102982.53
2023-12-15T18:26:38.311Z,102989.19
2023-12-15T18:29:41.029Z,102976.22
2023-12-15T18:32:44.762Z,102978.97
2023-12-15T18:35:48.937Z,102986.28
2023-12-15T18:38:51.795Z,102987.84
2023-12-15T18:41:54.565Z,102987.66
2023-12-15T18:44:57.442Z,103003.31
2023-12-15T18:48:00.296Z,103009.66
2023-12-15T18:51:05.056Z,102995.84
2023-12-15T18:54:09.856Z,103008.44
2023-12-15T18:57:13.613Z,103010.16
2023-12-15T19:00:19.875Z,103004.88
2023-12-15T19:03:26.740Z,103004.03
2023-12-15T19:06:30.957Z,103003.50
2023-12-15T19:09:34.161Z,102997.84
2023-12-15T19:12:37.828Z,102993.13
2023-12-15T19:15:40.634Z,102997.91
2023-12-15T19:18:44.883Z,103004.88
2023-12-15T19:21:49.031Z,103005.06
2023-12-15T19:24:55.680Z,103001.97
2023-12-15T19:27:58.678Z,103014.94
2023-12-15T19:31:01.854Z,103010.31
2023-12-15T19:34:04.983Z,103016.44
2023-12-15T19:37:09.355Z,103041.81
2023-12-15T19:40:14.343Z,103026.47
2023-12-15T19:43:17.170Z,103020.50
2023-12-15T19:46:21.809Z,103019.50
2023-12-15T19:49:26.101Z,103019.50
2023-12-15T19:52:32.102Z,103011.31
2023-12-15T19:55:37.375Z,103017.09
2023-12-15T19:58:40.222Z,103024.44
2023-12-15T20:01:43.035Z,103015.56
2023-12-15T20:04:46.533Z,103014.88
2023-12-15T20:07:51.048Z,103008.59
2023-12-15T20:10:54.069Z,103012.69
2023-12-15T20:13:56.909Z,103001.91
2023-12-15T20:16:59.830Z,103010.09
2023-12-15T20:20:02.709Z,103012.81
2023-12-15T20:23:07.060Z,103027.31
2023-12-15T20:26:10.466Z,103036.69
2023-12-15T20:29:14.530Z,103037.16
2023-12-15T20:32:17.237Z,103039.06
2023-12-15T20:35:20.437Z,103036.81
2023-12-15T20:38:24.717Z,103046.69
2023-12-15T20:41:27.708Z,103042.81
2023-12-15T20:44:30.455Z,103040.09
2023-12-15T20:47:36.614Z,103047.91
2023-12-15T20:50:39.609Z,103048.94
2023-12-15T20:53:43.853Z,103059.84
2023-12-15T20:56:46.680Z,103056.41
2023-12-15T20:59:49.556Z,103063.91
2023-12-15T21:02:52.308Z,103052.81
2023-12-15T21:05:55.322Z,103047.00
2023-12-15T21:09:00.113Z,103050.94
2023-12-15T21:12:03.989Z,103039.34
2023-12-15T21:15:07.685Z,103044.63
2023-12-15T21:18:12.756Z,103051.97
2023-12-15T21:21:15.562Z,103060.16
2023-12-15T21:24:21.595Z,103055.38
2023-12-15T21:27:24.379Z,103049.41
2023-12-15T21:30:30.385Z,103048.41
2023-12-15T21:33:33.142Z,103052.44
2023-12-15T21:36:36.026Z,103040.19
2023-12-15T21:39:42.112Z,103032.00
2023-12-15T21:42:45.230Z,103031.34
2023-12-15T21:45:47.952Z,103037.78
2023-12-15T21:48:50.917Z,103036.97
2023-12-15T21:51:53.916Z,103050.44
2023-12-15T21:54:58.164Z,103047.16
2023-12-15T21:58:01.178Z,103056.69
2023-12-15T22:01:04.118Z,103078.34
2023-12-15T22:04:08.891Z,103086.91
2023-12-15T22:07:11.780Z,103097.81
2023-12-15T22:10:16.548Z,103110.91
2023-12-15T22:13:19.929Z,103116.06
2023-12-15T22:16:22.890Z,103118.78
2023-12-15T22:19:26.108Z,103109.44
2023-12-15T22:22:29.128Z,103108.22
2023-12-15T22:25:33.293Z,103097.31
2023-12-15T22:28:36.238Z,103092.03
2023-12-15T22:31:43.224Z,103087.75
2023-12-15T22:34:47.642Z,103080.09
2023-12-15T22:37:50.397Z,103088.59
2023-12-15T22:40:54.607Z,103087.75
2023-12-15T22:43:57.319Z,103095.63
2023-12-15T22:47:00.217Z,103088.09
2023-12-15T22:50:04.383Z,103092.53
2023-12-15T22:53:07.558Z,103083.31
2023-12-15T22:56:12.587Z,103089.13
2023-12-15T22:59:15.760Z,103092.69
2023-12-15T23:02:18.505Z,103088.22
2023-12-15T23:05:21.534Z,103094.72
2023-12-15T23:08:24.307Z,103096.78
2023-12-15T23:11:28.612Z,103092.84
2023-12-15T23:14:31.390Z,103092.00
2023-12-15T23:17:34.661Z,103100.03
2023-12-15T23:20:37.832Z,103096.09
2023-12-15T23:23:40.700Z,103087.72
2023-12-15T23:26:44.756Z,103077.47
2023-12-15T23:29:47.677Z,103091.84
2023-12-15T23:32:50.511Z,103092.34
2023-12-15T23:35:53.382Z,103093.19
2023-12-15T23:38:56.672Z,103092.00
2023-12-15T23:42:00.872Z,103085.72
2023-12-15T23:45:04.167Z,103090.16
2023-12-15T23:48:07.313Z,103097.81
2023-12-15T23:51:10.215Z,103116.41
2023-12-15T23:54:13.201Z,103113.38
2023-12-15T23:57:17.306Z,103115.41
